Terminal Aerodrome Forecast
Issued by NWS

Home | Current Version | Previous Version | Text Only | Print | Product List | Glossary On
Versions: 1 2 3 4 5 6 7 8 9 10 11 12 13 14 15 16 17 18 19 20 21 22 23 24 25
992
FTUS46 KMFR 061144
TAFLMT
TAF
KLMT 061144Z 0612/0712 VRB03KT 6SM -SHSN OVC035
      TEMPO 0612/0616 1SM -SN BR BKN003 OVC015
     FM061700 30008KT 5SM -SHSN BR SCT003 BKN015 OVC025
     FM062100 VRB03KT P6SM BKN040
     FM071000 00000KT 2SM BR BCFG FEW002=

USA.gov is the U.S. government's official web portal to all federal, state and local government web resources and services.